Time;durP1;ratioP1;P1;durP2;ratioP2;P2;SDS_P1;SDS_P2;PMS_P1;PMS_P2;Temp;Humidity;BMP_temperature;BMP_pressure;BME280_temperature;BME280_humidity;BME280_pressure;Samples;Min_cycle;Max_cycle;Signal;HPM_P1;HPM_P2
2022/03/17 00:00:04;;;;;;;;;;;;;;;;;;2090137;28;20141;-44
2022/03/17 00:01:05;;;;;;;;;;;;;;;;;;2090176;28;20370;-44
2022/03/17 00:02:06;;;;;;;;;;;;;;;;;;2090100;28;20015;-44
2022/03/17 00:03:08;;;;;;;;;;;;;;;;;;2090473;28;19972;-44
2022/03/17 00:04:09;;;;;;;;;;;;;;;;;;2090066;28;19925;-44
2022/03/17 00:05:11;;;;;;;;;;;;;;;;;;2090327;28;20007;-47
2022/03/17 00:06:13;;;;;;;;;;;;;;;;;;2090132;28;20020;-49
2022/03/17 00:07:14;;;;;;;;;;;;;;;;;;2090448;28;20270;-48
2022/03/17 00:08:16;;;;;;;;;;;;;;;;;;2090494;28;19925;-44
2022/03/17 00:09:17;;;;;;;;;;;;;;;;;;2090190;28;20023;-43
2022/03/17 00:10:18;;;;;;;;;;;;;;;;;;2090226;28;20007;-44
2022/03/17 00:11:20;;;;;;;;;;;;;;;;;;2090418;28;19924;-43
2022/03/17 00:12:21;;;;;;;;;;;;;;;;;;2090146;28;20401;-43
2022/03/17 00:13:26;;;;;;;;;;;;;;;;;;2090246;28;19931;-44
2022/03/17 00:14:28;;;;;;;;;;;;;;;;;;2090062;28;20016;-44
2022/03/17 00:15:29;;;;;;;;;;;;;;;;;;2090177;28;20019;-43
2022/03/17 00:16:31;;;;;;;;;;;;;;;;;;2089879;28;19929;-42
2022/03/17 00:17:32;;;;;;;;;;;;;;;;;;2090020;28;19925;-44
2022/03/17 00:18:33;;;;;;;;;;;;;;;;;;2090186;28;19935;-43
2022/03/17 00:19:36;;;;;;;;;;;;;;;;;;2089607;28;19925;-44
2022/03/17 00:20:39;;;;;;;;;;;;;;;;;;2090510;28;19975;-44
2022/03/17 00:21:40;;;;;;;;;;;;;;;;;;2089915;28;19933;-44
2022/03/17 00:22:41;;;;;;;;;;;;;;;;;;2090425;28;19970;-44
2022/03/17 00:23:42;;;;;;;;;;;;;;;;;;2089986;28;20007;-43
2022/03/17 00:24:44;;;;;;;;;;;;;;;;;;2089976;28;19929;-44
2022/03/17 00:25:45;;;;;;;;;;;;;;;;;;2090230;28;19925;-43
2022/03/17 00:26:46;;;;;;;;;;;;;;;;;;2089853;28;20031;-44
2022/03/17 00:27:47;;;;;;;;;;;;;;;;;;2090176;28;20460;-43
2022/03/17 00:28:48;;;;;;;;;;;;;;;;;;2090107;28;19986;-44
2022/03/17 00:29:50;;;;;;;;;;;;;;;;;;2090004;28;20392;-44
2022/03/17 00:30:51;;;;;;;;;;;;;;;;;;2089785;28;19925;-44
2022/03/17 00:31:52;;;;;;;;;;;;;;;;;;2089986;28;19931;-48
2022/03/17 00:32:53;;;;;;;;;;;;;;;;;;2090092;28;19983;-48
2022/03/17 00:33:55;;;;;;;;;;;;;;;;;;2090235;28;20017;-48
2022/03/17 00:36:15;;;;;;;;;;;;;;;;;;2088040;28;19976;-49
2022/03/17 00:37:17;;;;;;;;;;;;;;;;;;2090100;28;20365;-49
2022/03/17 00:38:18;;;;;;;;;;;;;;;;;;2089577;28;19963;-48
2022/03/17 00:39:19;;;;;;;;;;;;;;;;;;2089769;28;20015;-47
2022/03/17 00:40:20;;;;;;;;;;;;;;;;;;2089917;28;19925;-48
2022/03/17 00:41:21;;;;;;;;;;;;;;;;;;2090145;28;19925;-47
2022/03/17 00:42:22;;;;;;;;;;;;;;;;;;2090183;28;19925;-49
2022/03/17 00:43:24;;;;;;;;;;;;;;;;;;2090005;28;20035;-48
2022/03/17 00:44:25;;;;;;;;;;;;;;;;;;2089613;28;19925;-48
2022/03/17 00:45:26;;;;;;;;;;;;;;;;;;2090051;28;19925;-47
2022/03/17 00:46:27;;;;;;;;;;;;;;;;;;2089894;28;19924;-47
2022/03/17 00:47:28;;;;;;;;;;;;;;;;;;2090092;28;20405;-48
2022/03/17 00:48:29;;;;;;;;;;;;;;;;;;2089844;28;20374;-47
2022/03/17 00:49:31;;;;;;;;;;;;;;;;;;2089614;28;19947;-48
2022/03/17 00:50:32;;;;;;;;;;;;;;;;;;2089953;28;19925;-49
2022/03/17 00:51:33;;;;;;;;;;;;;;;;;;2089960;28;19968;-48
2022/03/17 00:52:34;;;;;;;;;;;;;;;;;;2090094;28;19925;-48
2022/03/17 00:53:35;;;;;;;;;;;;;;;;;;2089597;28;19925;-47
2022/03/17 00:54:36;;;;;;;;;;;;;;;;;;2089720;28;19964;-48
2022/03/17 00:55:37;;;;;;;;;;;;;;;;;;2090411;28;19924;-47
2022/03/17 00:56:38;;;;;;;;;;;;;;;;;;2090019;28;20009;-48
2022/03/17 00:57:40;;;;;;;;;;;;;;;;;;2090059;28;19931;-48
2022/03/17 00:58:45;;;;;;;;;;;;;;;;;;2090002;28;20390;-48
2022/03/17 00:59:48;;;;;;;;;;;;;;;;;;2089486;28;20314;-47
2022/03/17 01:00:50;;;;;;;;;;;;;;;;;;2089987;28;20281;-49
2022/03/17 01:01:51;;;;;;;;;;;;;;;;;;2089619;28;20344;-47
2022/03/17 01:02:53;;;;;;;;;;;;;;;;;;2089986;28;20372;-47
2022/03/17 01:03:54;;;;;;;;;;;;;;;;;;2089575;28;19932;-48
2022/03/17 01:04:55;;;;;;;;;;;;;;;;;;2089844;28;19975;-47
2022/03/17 01:05:56;;;;;;;;;;;;;;;;;;2089851;28;19933;-50
2022/03/17 01:06:57;;;;;;;;;;;;;;;;;;2089559;28;19975;-48
2022/03/17 01:07:59;;;;;;;;;;;;;;;;;;2089806;28;19924;-48
2022/03/17 01:09:00;;;;;;;;;;;;;;;;;;2088871;28;19975;-47
2022/03/17 01:10:01;;;;;;;;;;;;;;;;;;2089305;28;19971;-44
2022/03/17 01:11:02;;;;;;;;;;;;;;;;;;2089916;28;19987;-44
2022/03/17 01:12:03;;;;;;;;;;;;;;;;;;2089977;28;19929;-44
2022/03/17 01:13:04;;;;;;;;;;;;;;;;;;2089890;28;19978;-45
2022/03/17 01:14:06;;;;;;;;;;;;;;;;;;2089592;28;19956;-44
2022/03/17 01:15:08;;;;;;;;;;;;;;;;;;2089712;28;20019;-43
2022/03/17 01:16:09;;;;;;;;;;;;;;;;;;2081688;28;19987;-51
2022/03/17 01:17:10;;;;;;;;;;;;;;;;;;2081703;28;20341;-48
2022/03/17 01:18:11;;;;;;;;;;;;;;;;;;2081676;28;19925;-47
2022/03/17 01:19:13;;;;;;;;;;;;;;;;;;2081568;28;20294;-48
2022/03/17 01:20:14;;;;;;;;;;;;;;;;;;2088805;28;20419;-48
2022/03/17 01:21:15;;;;;;;;;;;;;;;;;;2089804;28;19967;-47
2022/03/17 01:22:16;;;;;;;;;;;;;;;;;;2089352;28;19925;-47
2022/03/17 01:23:18;;;;;;;;;;;;;;;;;;2090017;28;20004;-44
2022/03/17 01:24:18;;;;;;;;;;;;;;;;;;2089787;28;20285;-50
2022/03/17 01:25:20;;;;;;;;;;;;;;;;;;2089755;28;20015;-48
2022/03/17 01:26:21;;;;;;;;;;;;;;;;;;2089742;28;20340;-48
2022/03/17 01:27:23;;;;;;;;;;;;;;;;;;2089784;28;19982;-47
2022/03/17 01:28:24;;;;;;;;;;;;;;;;;;2089850;28;19935;-50
2022/03/17 01:29:26;;;;;;;;;;;;;;;;;;2089531;28;19948;-51
2022/03/17 01:30:27;;;;;;;;;;;;;;;;;;2090039;28;20012;-49
2022/03/17 01:31:29;;;;;;;;;;;;;;;;;;2089472;28;19924;-48
2022/03/17 01:32:31;;;;;;;;;;;;;;;;;;2089421;28;19929;-48
2022/03/17 01:33:32;;;;;;;;;;;;;;;;;;2089768;28;20015;-44
2022/03/17 01:34:33;;;;;;;;;;;;;;;;;;2089870;28;20016;-44
2022/03/17 01:35:35;;;;;;;;;;;;;;;;;;2089542;28;20020;-44
2022/03/17 01:36:36;;;;;;;;;;;;;;;;;;2089790;28;20011;-47
2022/03/17 01:37:37;;;;;;;;;;;;;;;;;;2089582;28;19955;-48
2022/03/17 01:38:38;;;;;;;;;;;;;;;;;;2089592;28;19960;-47
2022/03/17 01:39:39;;;;;;;;;;;;;;;;;;2089319;28;19925;-48
2022/03/17 01:40:40;;;;;;;;;;;;;;;;;;2089643;28;19932;-47
2022/03/17 01:41:41;;;;;;;;;;;;;;;;;;2089543;28;20019;-47
2022/03/17 01:42:43;;;;;;;;;;;;;;;;;;2089574;28;19939;-48
2022/03/17 01:43:46;;;;;;;;;;;;;;;;;;2089882;28;19925;-44
2022/03/17 01:44:47;;;;;;;;;;;;;;;;;;2089192;28;20003;-44
2022/03/17 01:45:48;;;;;;;;;;;;;;;;;;2089663;28;19928;-44
2022/03/17 01:48:09;;;;;;;;;;;;;;;;;;2089320;28;20445;-49
2022/03/17 01:49:10;;;;;;;;;;;;;;;;;;2089816;28;20003;-43
2022/03/17 01:50:11;;;;;;;;;;;;;;;;;;2089744;28;19968;-43
2022/03/17 01:51:12;;;;;;;;;;;;;;;;;;2089778;28;20374;-44
2022/03/17 01:52:14;;;;;;;;;;;;;;;;;;2088941;28;20018;-44
2022/03/17 01:53:15;;;;;;;;;;;;;;;;;;2089555;28;20008;-44
2022/03/17 01:54:16;;;;;;;;;;;;;;;;;;2089064;28;19971;-43
2022/03/17 01:55:36;;;;;;;;;;;;;;;;;;2089944;28;19994;-47
2022/03/17 01:56:37;;;;;;;;;;;;;;;;;;2089067;28;20336;-49
2022/03/17 01:57:39;;;;;;;;;;;;;;;;;;2089329;28;19925;-51
2022/03/17 01:58:40;;;;;;;;;;;;;;;;;;2089183;28;20314;-48
2022/03/17 01:59:41;;;;;;;;;;;;;;;;;;2089361;28;19983;-49
2022/03/17 02:00:43;;;;;;;;;;;;;;;;;;2089698;28;19955;-47
2022/03/17 02:01:44;;;;;;;;;;;;;;;;;;2089214;28;20304;-48
2022/03/17 02:02:47;;;;;;;;;;;;;;;;;;2089321;28;19931;-47
2022/03/17 02:03:49;;;;;;;;;;;;;;;;;;2089701;28;20446;-44
2022/03/17 02:04:51;;;;;;;;;;;;;;;;;;2089383;28;19924;-44
2022/03/17 02:05:52;;;;;;;;;;;;;;;;;;2089496;28;19928;-43
2022/03/17 02:06:53;;;;;;;;;;;;;;;;;;2089433;28;19925;-44
2022/03/17 02:07:54;;;;;;;;;;;;;;;;;;2089537;28;19935;-44
2022/03/17 02:08:55;;;;;;;;;;;;;;;;;;2089605;28;19970;-44
2022/03/17 02:09:56;;;;;;;;;;;;;;;;;;2089440;28;20066;-48
2022/03/17 02:13:36;;;;;;;;;;;;;;;;;;2089665;28;19931;-50
2022/03/17 02:14:37;;;;;;;;;;;;;;;;;;2089201;28;20331;-47
2022/03/17 02:15:38;;;;;;;;;;;;;;;;;;2089528;28;20016;-48
2022/03/17 02:16:39;;;;;;;;;;;;;;;;;;2089329;28;20019;-48
2022/03/17 02:17:41;;;;;;;;;;;;;;;;;;2089444;28;19931;-48
2022/03/17 02:18:46;;;;;;;;;;;;;;;;;;2089573;28;19932;-48
2022/03/17 02:19:47;;;;;;;;;;;;;;;;;;2089723;28;19925;-48
2022/03/17 02:20:48;;;;;;;;;;;;;;;;;;2088983;28;20309;-47
2022/03/17 02:21:49;;;;;;;;;;;;;;;;;;2089413;28;20388;-47
2022/03/17 02:22:50;;;;;;;;;;;;;;;;;;2089242;28;19925;-44
2022/03/17 02:25:35;;;;;;;;;;;;;;;;;;2064037;28;20322;-43
2022/03/17 02:26:36;;;;;;;;;;;;;;;;;;2063599;28;19926;-45
2022/03/17 02:27:38;;;;;;;;;;;;;;;;;;2063700;28;20020;-43
2022/03/17 02:28:39;;;;;;;;;;;;;;;;;;2062472;28;19930;-43
2022/03/17 02:29:40;;;;;;;;;;;;;;;;;;2063721;28;20016;-44
2022/03/17 02:30:41;;;;;;;;;;;;;;;;;;2064190;28;19969;-43
2022/03/17 02:31:42;;;;;;;;;;;;;;;;;;2089220;28;20242;-43
2022/03/17 02:32:44;;;;;;;;;;;;;;;;;;2088891;28;19976;-43
2022/03/17 02:33:45;;;;;;;;;;;;;;;;;;2089415;28;20011;-44
2022/03/17 02:34:46;;;;;;;;;;;;;;;;;;2088871;28;19925;-44
2022/03/17 02:35:49;;;;;;;;;;;;;;;;;;2089420;28;19924;-43
2022/03/17 02:36:49;;;;;;;;;;;;;;;;;;2089248;28;20007;-43
2022/03/17 02:37:51;;;;;;;;;;;;;;;;;;2089394;28;19956;-43
2022/03/17 02:38:52;;;;;;;;;;;;;;;;;;2089779;28;19967;-44
2022/03/17 02:39:53;;;;;;;;;;;;;;;;;;2089181;28;20019;-43
2022/03/17 02:40:54;;;;;;;;;;;;;;;;;;2089525;28;19925;-47
2022/03/17 02:41:55;;;;;;;;;;;;;;;;;;2089340;28;19924;-46
2022/03/17 02:42:57;;;;;;;;;;;;;;;;;;2089100;28;20358;-48
2022/03/17 02:43:58;;;;;;;;;;;;;;;;;;2089159;28;20086;-47
2022/03/17 02:44:59;;;;;;;;;;;;;;;;;;2089104;28;19960;-47
2022/03/17 02:46:00;;;;;;;;;;;;;;;;;;2089264;28;20015;-46
2022/03/17 02:47:01;;;;;;;;;;;;;;;;;;2089400;28;20366;-50
2022/03/17 02:48:02;;;;;;;;;;;;;;;;;;2089098;28;19959;-48
2022/03/17 02:49:03;;;;;;;;;;;;;;;;;;2089340;28;20511;-49
2022/03/17 02:50:05;;;;;;;;;;;;;;;;;;2089276;28;19924;-47
2022/03/17 02:51:06;;;;;;;;;;;;;;;;;;2089310;28;19968;-50
2022/03/17 02:52:07;;;;;;;;;;;;;;;;;;2089085;28;19925;-48
2022/03/17 02:53:09;;;;;;;;;;;;;;;;;;2088956;28;19940;-47
2022/03/17 02:54:10;;;;;;;;;;;;;;;;;;2089095;28;20393;-47
2022/03/17 02:55:11;;;;;;;;;;;;;;;;;;2089218;28;19963;-50
2022/03/17 02:56:13;;;;;;;;;;;;;;;;;;2089319;28;19964;-50
2022/03/17 02:57:14;;;;;;;;;;;;;;;;;;2089078;28;20011;-48
2022/03/17 02:58:15;;;;;;;;;;;;;;;;;;2089298;28;20008;-49
2022/03/17 02:59:16;;;;;;;;;;;;;;;;;;2088691;28;20454;-47
2022/03/17 03:00:18;;;;;;;;;;;;;;;;;;2089209;28;19932;-49
2022/03/17 03:01:19;;;;;;;;;;;;;;;;;;2089241;28;20337;-50
2022/03/17 03:02:20;;;;;;;;;;;;;;;;;;2089101;28;19925;-48
2022/03/17 03:03:22;;;;;;;;;;;;;;;;;;2081046;28;19932;-48
2022/03/17 03:04:23;;;;;;;;;;;;;;;;;;2083021;28;20017;-47
2022/03/17 03:05:26;;;;;;;;;;;;;;;;;;2089331;28;20066;-49
2022/03/17 03:06:27;;;;;;;;;;;;;;;;;;2088961;28;19978;-50
2022/03/17 03:07:28;;;;;;;;;;;;;;;;;;2089147;28;19925;-47
2022/03/17 03:08:29;;;;;;;;;;;;;;;;;;2089195;28;19993;-49
2022/03/17 03:09:31;;;;;;;;;;;;;;;;;;2088977;28;19956;-48
2022/03/17 03:10:33;;;;;;;;;;;;;;;;;;2089020;28;20006;-48
2022/03/17 03:11:34;;;;;;;;;;;;;;;;;;2089217;28;20019;-49
2022/03/17 03:12:35;;;;;;;;;;;;;;;;;;2089139;28;19971;-48
2022/03/17 03:13:37;;;;;;;;;;;;;;;;;;2088848;28;20393;-47
2022/03/17 03:14:38;;;;;;;;;;;;;;;;;;2088966;28;20015;-51
2022/03/17 03:15:39;;;;;;;;;;;;;;;;;;2089111;28;19999;-49
2022/03/17 03:16:40;;;;;;;;;;;;;;;;;;2088832;28;19975;-48
2022/03/17 03:17:41;;;;;;;;;;;;;;;;;;2089224;28;20009;-48
2022/03/17 03:18:42;;;;;;;;;;;;;;;;;;2089082;28;19928;-47
2022/03/17 03:19:44;;;;;;;;;;;;;;;;;;2088920;28;19936;-48
2022/03/17 03:20:45;;;;;;;;;;;;;;;;;;2089233;28;19925;-48
2022/03/17 03:21:46;;;;;;;;;;;;;;;;;;2089044;28;20436;-48
2022/03/17 03:22:47;;;;;;;;;;;;;;;;;;2089342;28;20004;-48
2022/03/17 03:23:48;;;;;;;;;;;;;;;;;;2088786;28;20484;-49
2022/03/17 03:24:49;;;;;;;;;;;;;;;;;;2088896;28;19925;-50
2022/03/17 03:25:50;;;;;;;;;;;;;;;;;;2088829;28;19928;-49
2022/03/17 03:26:52;;;;;;;;;;;;;;;;;;2089066;28;19979;-49
2022/03/17 03:27:53;;;;;;;;;;;;;;;;;;2089059;28;19932;-49
2022/03/17 03:28:54;;;;;;;;;;;;;;;;;;2089360;28;19928;-44
2022/03/17 03:29:55;;;;;;;;;;;;;;;;;;2088864;28;20288;-45
2022/03/17 03:30:56;;;;;;;;;;;;;;;;;;2089182;28;19986;-44
2022/03/17 03:31:57;;;;;;;;;;;;;;;;;;2088777;28;20028;-44
2022/03/17 03:32:59;;;;;;;;;;;;;;;;;;2089905;28;19972;-44
2022/03/17 03:34:00;;;;;;;;;;;;;;;;;;2090809;28;20007;-48
2022/03/17 03:37:22;;;;;;;;;;;;;;;;;;2090279;28;20427;-51
2022/03/17 03:37:42;;;;;;;;;;;;;;;;;;2090264;28;20023;-48
2022/03/17 03:38:43;;;;;;;;;;;;;;;;;;2090646;28;20000;-48
2022/03/17 03:39:45;;;;;;;;;;;;;;;;;;2090142;28;19933;-48
2022/03/17 03:40:46;;;;;;;;;;;;;;;;;;2090274;28;19931;-48
2022/03/17 03:41:47;;;;;;;;;;;;;;;;;;2090502;28;19925;-49
2022/03/17 03:42:48;;;;;;;;;;;;;;;;;;2090600;28;19925;-44
2022/03/17 03:43:49;;;;;;;;;;;;;;;;;;2090375;28;19968;-44
2022/03/17 03:44:51;;;;;;;;;;;;;;;;;;2090252;28;19929;-48
2022/03/17 03:45:52;;;;;;;;;;;;;;;;;;2090802;28;20006;-44
2022/03/17 03:46:53;;;;;;;;;;;;;;;;;;2089894;28;19929;-49
2022/03/17 03:47:54;;;;;;;;;;;;;;;;;;2090595;28;19929;-48
2022/03/17 03:48:55;;;;;;;;;;;;;;;;;;2090107;28;20301;-48
2022/03/17 03:49:56;;;;;;;;;;;;;;;;;;2090520;28;20003;-48
2022/03/17 03:50:58;;;;;;;;;;;;;;;;;;2090284;28;20344;-48
2022/03/17 03:51:59;;;;;;;;;;;;;;;;;;2090253;28;19924;-49
2022/03/17 03:53:00;;;;;;;;;;;;;;;;;;2089988;28;20016;-48
2022/03/17 03:54:13;;;;;;;;;;;;;;;;;;2090721;28;20066;-44
2022/03/17 03:55:15;;;;;;;;;;;;;;;;;;2090231;28;20008;-44
2022/03/17 03:56:16;;;;;;;;;;;;;;;;;;2090445;28;19925;-44
2022/03/17 03:57:17;;;;;;;;;;;;;;;;;;2089812;28;20346;-44
2022/03/17 03:58:18;;;;;;;;;;;;;;;;;;2090094;28;19954;-49
2022/03/17 03:59:20;;;;;;;;;;;;;;;;;;2090139;28;20039;-48
2022/03/17 04:00:26;;;;;;;;;;;;;;;;;;2090276;28;20047;-48
2022/03/17 04:01:30;;;;;;;;;;;;;;;;;;2089930;28;20362;-48
2022/03/17 04:02:32;;;;;;;;;;;;;;;;;;2090342;28;19924;-47
2022/03/17 04:03:33;;;;;;;;;;;;;;;;;;2090118;28;20019;-50
2022/03/17 04:04:34;;;;;;;;;;;;;;;;;;2090208;28;19932;-48
2022/03/17 04:05:37;;;;;;;;;;;;;;;;;;2090424;28;20010;-48
2022/03/17 04:06:41;;;;;;;;;;;;;;;;;;2090314;28;20023;-48
2022/03/17 04:07:42;;;;;;;;;;;;;;;;;;2090182;28;19924;-49
2022/03/17 04:08:43;;;;;;;;;;;;;;;;;;2090264;28;20009;-49
2022/03/17 04:09:44;;;;;;;;;;;;;;;;;;2090403;28;19952;-44
2022/03/17 04:10:45;;;;;;;;;;;;;;;;;;2090228;28;19939;-44
2022/03/17 04:11:46;;;;;;;;;;;;;;;;;;2089992;28;20031;-44
2022/03/17 04:12:47;;;;;;;;;;;;;;;;;;2090511;28;19968;-48
2022/03/17 04:13:48;;;;;;;;;;;;;;;;;;2089876;28;20441;-48
2022/03/17 04:14:50;;;;;;;;;;;;;;;;;;2090338;28;19925;-44
2022/03/17 04:15:51;;;;;;;;;;;;;;;;;;2090305;28;20377;-44
2022/03/17 04:16:52;;;;;;;;;;;;;;;;;;2090253;28;19947;-44
2022/03/17 04:17:53;;;;;;;;;;;;;;;;;;2090381;28;19941;-44
2022/03/17 04:18:55;;;;;;;;;;;;;;;;;;2090189;28;20028;-44
2022/03/17 04:19:56;;;;;;;;;;;;;;;;;;2090318;28;20110;-44
2022/03/17 04:20:57;;;;;;;;;;;;;;;;;;2089818;28;19956;-44
2022/03/17 04:21:58;;;;;;;;;;;;;;;;;;2090330;28;19929;-44
2022/03/17 04:22:59;;;;;;;;;;;;;;;;;;2089798;28;20305;-44
2022/03/17 04:24:00;;;;;;;;;;;;;;;;;;2090288;28;19928;-45
2022/03/17 04:25:01;;;;;;;;;;;;;;;;;;2089748;28;20346;-44
2022/03/17 04:26:02;;;;;;;;;;;;;;;;;;2090014;28;20315;-44
2022/03/17 04:27:05;;;;;;;;;;;;;;;;;;2089977;28;19960;-44
2022/03/17 04:28:08;;;;;;;;;;;;;;;;;;2090272;28;19931;-44
2022/03/17 04:29:10;;;;;;;;;;;;;;;;;;2089950;28;19929;-45
2022/03/17 04:30:11;;;;;;;;;;;;;;;;;;2090431;28;20366;-48
2022/03/17 04:31:13;;;;;;;;;;;;;;;;;;2090057;28;20008;-48
2022/03/17 04:32:14;;;;;;;;;;;;;;;;;;2090182;28;19972;-48
2022/03/17 04:33:15;;;;;;;;;;;;;;;;;;2089596;28;20012;-49
2022/03/17 04:34:16;;;;;;;;;;;;;;;;;;2090313;28;20018;-48
2022/03/17 04:35:17;;;;;;;;;;;;;;;;;;2090349;28;19925;-44
2022/03/17 04:36:18;;;;;;;;;;;;;;;;;;2089122;28;20334;-44
2022/03/17 04:37:19;;;;;;;;;;;;;;;;;;2090123;28;19931;-44
2022/03/17 04:38:20;;;;;;;;;;;;;;;;;;2090337;28;19968;-44
2022/03/17 04:39:21;;;;;;;;;;;;;;;;;;2089968;28;19931;-43
2022/03/17 04:40:23;;;;;;;;;;;;;;;;;;2089678;28;20408;-44
2022/03/17 04:41:24;;;;;;;;;;;;;;;;;;2090192;28;20386;-44
2022/03/17 04:42:25;;;;;;;;;;;;;;;;;;2090064;28;20018;-44
2022/03/17 04:43:26;;;;;;;;;;;;;;;;;;2089858;28;20386;-44
2022/03/17 04:44:27;;;;;;;;;;;;;;;;;;2089602;28;20039;-43
2022/03/17 04:45:28;;;;;;;;;;;;;;;;;;2090065;28;20294;-44
2022/03/17 04:46:30;;;;;;;;;;;;;;;;;;2090226;28;20074;-50
2022/03/17 04:47:31;;;;;;;;;;;;;;;;;;2089996;28;19964;-50
2022/03/17 04:48:32;;;;;;;;;;;;;;;;;;2090096;28;19932;-48
2022/03/17 04:49:33;;;;;;;;;;;;;;;;;;2089758;28;20359;-48
2022/03/17 04:50:34;;;;;;;;;;;;;;;;;;2089814;28;19951;-48
2022/03/17 04:51:35;;;;;;;;;;;;;;;;;;2089949;28;20088;-48
2022/03/17 04:53:56;;;;;;;;;;;;;;;;;;2090016;28;20431;-44
2022/03/17 04:54:57;;;;;;;;;;;;;;;;;;2090044;28;20457;-44
2022/03/17 04:55:58;;;;;;;;;;;;;;;;;;2089853;28;19991;-47
2022/03/17 04:56:59;;;;;;;;;;;;;;;;;;2090029;28;19928;-48
2022/03/17 04:58:01;;;;;;;;;;;;;;;;;;2089567;28;19924;-47
2022/03/17 04:59:02;;;;;;;;;;;;;;;;;;2089864;28;19931;-50
2022/03/17 05:00:03;;;;;;;;;;;;;;;;;;2090036;28;19970;-48
2022/03/17 05:01:04;;;;;;;;;;;;;;;;;;2090013;28;19944;-48
2022/03/17 05:02:05;;;;;;;;;;;;;;;;;;2090011;28;19925;-50
2022/03/17 05:03:06;;;;;;;;;;;;;;;;;;2090167;28;19979;-47
2022/03/17 05:04:08;;;;;;;;;;;;;;;;;;2090174;28;19932;-43
2022/03/17 05:05:09;;;;;;;;;;;;;;;;;;2089883;28;20282;-43
2022/03/17 05:06:11;;;;;;;;;;;;;;;;;;2089941;28;20500;-43
2022/03/17 05:07:11;;;;;;;;;;;;;;;;;;2089362;28;19925;-44
2022/03/17 05:08:13;;;;;;;;;;;;;;;;;;2089512;28;19999;-44
2022/03/17 05:09:14;;;;;;;;;;;;;;;;;;2090196;28;20290;-43
2022/03/17 05:10:15;;;;;;;;;;;;;;;;;;2089833;28;19932;-44
2022/03/17 05:11:18;;;;;;;;;;;;;;;;;;2089842;28;19933;-44
2022/03/17 05:12:19;;;;;;;;;;;;;;;;;;2089668;28;20023;-44
2022/03/17 05:13:21;;;;;;;;;;;;;;;;;;2088918;28;19960;-45
2022/03/17 05:14:21;;;;;;;;;;;;;;;;;;2089307;28;20008;-44
2022/03/17 05:15:23;;;;;;;;;;;;;;;;;;2089888;28;19924;-45
2022/03/17 05:16:24;;;;;;;;;;;;;;;;;;2089263;28;19986;-44
2022/03/17 05:17:25;;;;;;;;;;;;;;;;;;2089179;28;19978;-43
2022/03/17 05:18:27;;;;;;;;;;;;;;;;;;2088890;28;20031;-44
2022/03/17 05:19:28;;;;;;;;;;;;;;;;;;2089254;28;20487;-44
2022/03/17 05:20:29;;;;;;;;;;;;;;;;;;2089814;28;19925;-43
2022/03/17 05:21:31;;;;;;;;;;;;;;;;;;2089811;28;19932;-44
2022/03/17 05:22:31;;;;;;;;;;;;;;;;;;2089888;28;20313;-45
2022/03/17 05:23:33;;;;;;;;;;;;;;;;;;2089871;28;20011;-44
2022/03/17 05:24:34;;;;;;;;;;;;;;;;;;2090319;28;19955;-48
2022/03/17 05:25:36;;;;;;;;;;;;;;;;;;2090449;28;20216;-44
2022/03/17 05:26:38;;;;;;;;;;;;;;;;;;2089863;28;19993;-44
2022/03/17 05:27:39;;;;;;;;;;;;;;;;;;2089899;28;19924;-44
2022/03/17 05:28:40;;;;;;;;;;;;;;;;;;2089933;28;19925;-43
2022/03/17 05:29:43;;;;;;;;;;;;;;;;;;2089502;28;19931;-43
2022/03/17 05:30:44;;;;;;;;;;;;;;;;;;2090040;28;20015;-43
2022/03/17 05:31:45;;;;;;;;;;;;;;;;;;2089731;28;19929;-44
2022/03/17 05:32:47;;;;;;;;;;;;;;;;;;2089814;28;19971;-44
2022/03/17 05:33:47;;;;;;;;;;;;;;;;;;2090040;28;20399;-47
2022/03/17 05:34:49;;;;;;;;;;;;;;;;;;2089779;28;19950;-49
2022/03/17 05:35:50;;;;;;;;;;;;;;;;;;2089792;28;20320;-50
2022/03/17 05:36:51;;;;;;;;;;;;;;;;;;2089985;28;19967;-50
2022/03/17 05:37:53;;;;;;;;;;;;;;;;;;2090107;28;20292;-49
2022/03/17 05:38:54;;;;;;;;;;;;;;;;;;2089837;28;20008;-48
2022/03/17 05:39:55;;;;;;;;;;;;;;;;;;2089911;28;19925;-44
2022/03/17 05:40:56;;;;;;;;;;;;;;;;;;2090293;28;19932;-48
2022/03/17 05:41:57;;;;;;;;;;;;;;;;;;2089852;28;20023;-48
2022/03/17 05:42:59;;;;;;;;;;;;;;;;;;2089988;28;20551;-49
2022/03/17 05:43:59;;;;;;;;;;;;;;;;;;2088305;28;19978;-47
2022/03/17 05:45:01;;;;;;;;;;;;;;;;;;2081593;28;20484;-47
2022/03/17 05:46:03;;;;;;;;;;;;;;;;;;2081412;28;19925;-48
2022/03/17 05:47:04;;;;;;;;;;;;;;;;;;2081763;28;19929;-48
2022/03/17 05:48:05;;;;;;;;;;;;;;;;;;2081616;28;20275;-45
2022/03/17 05:49:06;;;;;;;;;;;;;;;;;;2081437;28;20011;-43
2022/03/17 05:50:07;;;;;;;;;;;;;;;;;;2081469;28;20420;-44
2022/03/17 05:51:08;;;;;;;;;;;;;;;;;;2083834;28;21604;-44
2022/03/17 05:52:09;;;;;;;;;;;;;;;;;;2088571;28;20176;-44
2022/03/17 05:53:10;;;;;;;;;;;;;;;;;;2087637;28;19929;-44
2022/03/17 05:54:11;;;;;;;;;;;;;;;;;;2089047;28;19928;-43
2022/03/17 05:55:13;;;;;;;;;;;;;;;;;;2086908;28;19961;-49
2022/03/17 05:56:14;;;;;;;;;;;;;;;;;;2088503;28;20027;-48
2022/03/17 05:57:15;;;;;;;;;;;;;;;;;;2088392;28;19944;-49
2022/03/17 05:58:16;;;;;;;;;;;;;;;;;;2087865;28;19968;-49
2022/03/17 05:59:18;;;;;;;;;;;;;;;;;;2088872;28;19984;-49
2022/03/17 06:00:19;;;;;;;;;;;;;;;;;;2088561;28;20328;-48
2022/03/17 06:01:21;;;;;;;;;;;;;;;;;;2088474;28;19933;-44
2022/03/17 06:02:23;;;;;;;;;;;;;;;;;;2088595;28;20047;-44
2022/03/17 06:03:24;;;;;;;;;;;;;;;;;;2089570;28;19929;-44
2022/03/17 06:04:25;;;;;;;;;;;;;;;;;;2089599;28;20007;-44
2022/03/17 06:05:26;;;;;;;;;;;;;;;;;;2089958;28;19932;-45
2022/03/17 06:06:27;;;;;;;;;;;;;;;;;;2089656;28;20011;-44
2022/03/17 06:07:29;;;;;;;;;;;;;;;;;;2089756;28;19992;-49
2022/03/17 06:08:30;;;;;;;;;;;;;;;;;;2089557;28;19935;-44
2022/03/17 06:09:31;;;;;;;;;;;;;;;;;;2089421;28;20345;-49
2022/03/17 06:10:32;;;;;;;;;;;;;;;;;;2089766;28;19975;-45
2022/03/17 06:11:33;;;;;;;;;;;;;;;;;;2089598;28;19960;-45
2022/03/17 06:12:35;;;;;;;;;;;;;;;;;;2089717;28;19979;-45
2022/03/17 06:13:36;;;;;;;;;;;;;;;;;;2089349;28;19961;-45
2022/03/17 06:14:37;;;;;;;;;;;;;;;;;;2082861;28;20012;-49
2022/03/17 06:15:39;;;;;;;;;;;;;;;;;;2081310;28;19935;-52
2022/03/17 06:16:40;;;;;;;;;;;;;;;;;;2087177;28;19924;-44
2022/03/17 06:17:41;;;;;;;;;;;;;;;;;;2088775;28;19955;-43
2022/03/17 06:18:42;;;;;;;;;;;;;;;;;;2089063;28;19925;-43
2022/03/17 06:19:44;;;;;;;;;;;;;;;;;;2089474;28;20011;-44
2022/03/17 06:20:45;;;;;;;;;;;;;;;;;;2089164;28;20028;-43
2022/03/17 06:21:46;;;;;;;;;;;;;;;;;;2088324;28;20393;-44
2022/03/17 06:22:47;;;;;;;;;;;;;;;;;;2089458;28;19924;-44
2022/03/17 06:23:49;;;;;;;;;;;;;;;;;;2089165;28;20031;-49
2022/03/17 06:24:50;;;;;;;;;;;;;;;;;;2089095;28;20293;-48
2022/03/17 06:25:51;;;;;;;;;;;;;;;;;;2088960;28;19929;-49
2022/03/17 06:26:52;;;;;;;;;;;;;;;;;;2089311;28;20019;-49
2022/03/17 06:27:54;;;;;;;;;;;;;;;;;;2088962;28;19932;-50
2022/03/17 06:28:55;;;;;;;;;;;;;;;;;;2089186;28;20007;-43
2022/03/17 06:29:56;;;;;;;;;;;;;;;;;;2088533;28;20181;-44
2022/03/17 06:30:57;;;;;;;;;;;;;;;;;;2080978;28;19932;-44
2022/03/17 06:31:58;;;;;;;;;;;;;;;;;;2087494;28;19924;-45
2022/03/17 06:33:01;;;;;;;;;;;;;;;;;;2089198;28;19960;-45
2022/03/17 06:34:02;;;;;;;;;;;;;;;;;;2089317;28;19972;-45
2022/03/17 06:35:04;;;;;;;;;;;;;;;;;;2089494;28;20344;-44
2022/03/17 06:36:05;;;;;;;;;;;;;;;;;;2088963;28;19929;-45
2022/03/17 06:37:06;;;;;;;;;;;;;;;;;;2089267;28;19975;-44
2022/03/17 06:38:07;;;;;;;;;;;;;;;;;;2088963;28;19979;-49
2022/03/17 06:39:08;;;;;;;;;;;;;;;;;;2089854;28;19925;-49
2022/03/17 06:40:09;;;;;;;;;;;;;;;;;;2089071;28;19929;-48
2022/03/17 06:41:11;;;;;;;;;;;;;;;;;;2089762;28;20000;-45
2022/03/17 06:42:12;;;;;;;;;;;;;;;;;;2089336;28;20441;-51
2022/03/17 06:43:14;;;;;;;;;;;;;;;;;;2088908;28;19929;-48
2022/03/17 06:44:15;;;;;;;;;;;;;;;;;;2087972;28;20106;-49
2022/03/17 06:45:17;;;;;;;;;;;;;;;;;;2085890;28;19932;-53
2022/03/17 06:46:18;;;;;;;;;;;;;;;;;;2087284;28;20050;-51
2022/03/17 06:47:19;;;;;;;;;;;;;;;;;;2087006;28;20019;-49
2022/03/17 06:48:20;;;;;;;;;;;;;;;;;;2087989;28;19979;-50
2022/03/17 06:49:22;;;;;;;;;;;;;;;;;;2088561;28;19924;-49
2022/03/17 06:50:23;;;;;;;;;;;;;;;;;;2089195;28;20369;-47
2022/03/17 06:51:24;;;;;;;;;;;;;;;;;;2088494;28;19975;-43
2022/03/17 06:52:25;;;;;;;;;;;;;;;;;;2087807;28;19925;-48
2022/03/17 06:53:27;;;;;;;;;;;;;;;;;;2086067;28;20079;-49
2022/03/17 06:54:28;;;;;;;;;;;;;;;;;;2089454;28;20032;-44
2022/03/17 06:55:31;;;;;;;;;;;;;;;;;;2089420;28;19957;-45
2022/03/17 06:56:32;;;;;;;;;;;;;;;;;;2088765;28;19925;-44
2022/03/17 06:57:34;;;;;;;;;;;;;;;;;;2089301;28;19925;-46
2022/03/17 06:58:35;;;;;;;;;;;;;;;;;;2089196;28;20015;-44
2022/03/17 06:59:36;;;;;;;;;;;;;;;;;;2089392;28;19924;-44
2022/03/17 07:00:37;;;;;;;;;;;;;;;;;;2089447;28;19924;-44
2022/03/17 07:01:38;;;;;;;;;;;;;;;;;;2089168;28;19986;-44
2022/03/17 07:02:40;;;;;;;;;;;;;;;;;;2088850;28;20015;-45
2022/03/17 07:03:41;;;;;;;;;;;;;;;;;;2089551;28;20304;-49
2022/03/17 07:04:42;;;;;;;;;;;;;;;;;;2088930;28;19931;-44
2022/03/17 07:05:44;;;;;;;;;;;;;;;;;;2089737;28;20404;-44
2022/03/17 07:06:44;;;;;;;;;;;;;;;;;;2081564;28;19929;-44
2022/03/17 07:07:46;;;;;;;;;;;;;;;;;;2082017;28;19925;-52
2022/03/17 07:08:47;;;;;;;;;;;;;;;;;;2083442;28;19947;-44